Lowndesville, South Carolina
Current Conditions -  °F | °C
As of 12:05 PM on Sunday 23 Nov 2014 (Local Time) from KAND Reporting Station
Heavy Rain Heavy Rain  
Wind Chill: 41°   Ceiling: 500
Heat Index: 46°   Visibility: 1.7mi
Dew Point: 44°   Wind: 12mph
Humidity: 93%   Direction: 340°NNW
Pressure: 30.02"   Gusts: NA
Location:  34.21°N, 82.65°W
Report Text: KAND 231705Z AUTO 34010KT 1 3/4SM +RA BR OVC005 08/07 A3002 RMK AO2 P0006 T00780067
Loading
Personal Weather Stations






























Interactive Weather Map New forecast layout! Learn more

10-Day Weather Forecast

Advertisements
Track Severe Weather on mobile